sensor_id;sensor_type;location;lat;lon;timestamp;temperature;humidity
20744;DHT22;56303;52.160;-0.428;2022-09-21T00:03:45;17.80;99.90
20744;DHT22;56303;52.160;-0.428;2022-09-21T00:06:17;17.90;99.90
20744;DHT22;56303;52.160;-0.428;2022-09-21T00:08:45;17.50;99.90
20744;DHT22;56303;52.160;-0.428;2022-09-21T00:11:15;17.60;99.90
20744;DHT22;56303;52.160;-0.428;2022-09-21T00:13:42;17.60;99.90
20744;DHT22;56303;52.160;-0.428;2022-09-21T00:16:14;17.60;99.90
20744;DHT22;56303;52.160;-0.428;2022-09-21T00:18:42;17.80;99.90
20744;DHT22;56303;52.160;-0.428;2022-09-21T00:21:12;17.80;99.90
20744;DHT22;56303;52.160;-0.428;2022-09-21T00:23:39;17.60;99.90
20744;DHT22;56303;52.160;-0.428;2022-09-21T00:26:09;17.60;99.90
20744;DHT22;56303;52.160;-0.428;2022-09-21T00:28:36;17.60;99.90
20744;DHT22;56303;52.160;-0.428;2022-09-21T00:31:04;17.80;99.90
20744;DHT22;56303;52.160;-0.428;2022-09-21T00:33:33;17.70;99.90
20744;DHT22;56303;52.160;-0.428;2022-09-21T00:36:21;17.50;99.90
20744;DHT22;56303;52.160;-0.428;2022-09-21T00:38:56;17.60;99.90
20744;DHT22;56303;52.160;-0.428;2022-09-21T00:41:24;17.50;99.90
20744;DHT22;56303;52.160;-0.428;2022-09-21T00:46:39;17.50;99.90
20744;DHT22;56303;52.160;-0.428;2022-09-21T00:49:07;17.40;99.90
20744;DHT22;56303;52.160;-0.428;2022-09-21T00:51:35;17.40;99.90
20744;DHT22;56303;52.160;-0.428;2022-09-21T00:54:07;17.10;99.90
20744;DHT22;56303;52.160;-0.428;2022-09-21T00:56:35;17.00;99.90
20744;DHT22;56303;52.160;-0.428;2022-09-21T00:59:03;16.90;99.90
20744;DHT22;56303;52.160;-0.428;2022-09-21T01:01:31;17.40;99.90
20744;DHT22;56303;52.160;-0.428;2022-09-21T01:03:58;17.70;99.90
20744;DHT22;56303;52.160;-0.428;2022-09-21T01:06:26;17.60;99.90
20744;DHT22;56303;52.160;-0.428;2022-09-21T01:08:54;17.40;99.90
20744;DHT22;56303;52.160;-0.428;2022-09-21T01:11:37;17.40;99.90
20744;DHT22;56303;52.160;-0.428;2022-09-21T01:17:20;17.20;99.90
20744;DHT22;56303;52.160;-0.428;2022-09-21T01:30:36;17.30;99.90
20744;DHT22;56303;52.160;-0.428;2022-09-21T01:33:14;17.30;99.90
20744;DHT22;56303;52.160;-0.428;2022-09-21T01:35:47;17.30;99.90
20744;DHT22;56303;52.160;-0.428;2022-09-21T01:38:27;17.10;99.90
20744;DHT22;56303;52.160;-0.428;2022-09-21T01:40:59;17.20;99.90
20744;DHT22;56303;52.160;-0.428;2022-09-21T01:43:34;17.30;99.90
20744;DHT22;56303;52.160;-0.428;2022-09-21T01:46:03;17.30;99.90
20744;DHT22;56303;52.160;-0.428;2022-09-21T01:52:26;16.60;99.90
20744;DHT22;56303;52.160;-0.428;2022-09-21T01:55:05;17.00;99.90
20744;DHT22;56303;52.160;-0.428;2022-09-21T01:57:41;17.20;99.90
20744;DHT22;56303;52.160;-0.428;2022-09-21T02:04:01;17.30;99.90
20744;DHT22;56303;52.160;-0.428;2022-09-21T02:06:30;17.40;99.90
20744;DHT22;56303;52.160;-0.428;2022-09-21T02:08:57;17.50;99.90
20744;DHT22;56303;52.160;-0.428;2022-09-21T02:11:24;17.50;99.90
20744;DHT22;56303;52.160;-0.428;2022-09-21T02:13:52;17.30;99.90
20744;DHT22;56303;52.160;-0.428;2022-09-21T02:22:10;17.40;99.90
20744;DHT22;56303;52.160;-0.428;2022-09-21T02:40:53;17.50;99.90
20744;DHT22;56303;52.160;-0.428;2022-09-21T02:45:58;17.40;99.90
20744;DHT22;56303;52.160;-0.428;2022-09-21T02:48:38;17.30;99.90
20744;DHT22;56303;52.160;-0.428;2022-09-21T02:51:13;17.10;99.90
20744;DHT22;56303;52.160;-0.428;2022-09-21T02:53:43;16.90;99.90
20744;DHT22;56303;52.160;-0.428;2022-09-21T02:56:13;17.00;99.90
20744;DHT22;56303;52.160;-0.428;2022-09-21T02:58:44;16.80;99.90
20744;DHT22;56303;52.160;-0.428;2022-09-21T03:01:13;16.70;99.90
20744;DHT22;56303;52.160;-0.428;2022-09-21T03:03:41;16.80;99.90
20744;DHT22;56303;52.160;-0.428;2022-09-21T03:06:08;17.00;99.90
20744;DHT22;56303;52.160;-0.428;2022-09-21T03:08:35;16.90;99.90
20744;DHT22;56303;52.160;-0.428;2022-09-21T03:11:02;16.70;99.90
20744;DHT22;56303;52.160;-0.428;2022-09-21T03:13:28;16.80;99.90
20744;DHT22;56303;52.160;-0.428;2022-09-21T03:16:04;16.60;99.90
20744;DHT22;56303;52.160;-0.428;2022-09-21T03:18:31;16.80;99.90
20744;DHT22;56303;52.160;-0.428;2022-09-21T03:20:58;16.80;99.90
20744;DHT22;56303;52.160;-0.428;2022-09-21T03:23:25;16.60;99.90
20744;DHT22;56303;52.160;-0.428;2022-09-21T03:25:52;16.90;99.90
20744;DHT22;56303;52.160;-0.428;2022-09-21T03:28:20;17.00;99.90
20744;DHT22;56303;52.160;-0.428;2022-09-21T03:30:48;17.10;99.90
20744;DHT22;56303;52.160;-0.428;2022-09-21T03:33:20;17.30;99.90
20744;DHT22;56303;52.160;-0.428;2022-09-21T03:35:48;17.10;99.90
20744;DHT22;56303;52.160;-0.428;2022-09-21T03:38:14;16.90;99.90
20744;DHT22;56303;52.160;-0.428;2022-09-21T03:40:46;16.70;99.90
20744;DHT22;56303;52.160;-0.428;2022-09-21T03:47:00;16.70;99.90
20744;DHT22;56303;52.160;-0.428;2022-09-21T03:49:27;16.90;99.90
20744;DHT22;56303;52.160;-0.428;2022-09-21T03:51:54;17.00;99.90
20744;DHT22;56303;52.160;-0.428;2022-09-21T03:54:21;17.10;99.90
20744;DHT22;56303;52.160;-0.428;2022-09-21T03:56:48;17.10;99.90
20744;DHT22;56303;52.160;-0.428;2022-09-21T03:59:15;17.10;99.90
20744;DHT22;56303;52.160;-0.428;2022-09-21T04:01:42;17.00;99.90
20744;DHT22;56303;52.160;-0.428;2022-09-21T04:04:09;16.90;99.90
20744;DHT22;56303;52.160;-0.428;2022-09-21T04:06:36;16.70;99.90
20744;DHT22;56303;52.160;-0.428;2022-09-21T04:09:02;16.40;99.90
20744;DHT22;56303;52.160;-0.428;2022-09-21T04:11:29;16.20;99.90
20744;DHT22;56303;52.160;-0.428;2022-09-21T04:13:58;16.20;99.90
20744;DHT22;56303;52.160;-0.428;2022-09-21T04:16:26;16.30;99.90
20744;DHT22;56303;52.160;-0.428;2022-09-21T04:18:54;16.20;99.90
20744;DHT22;56303;52.160;-0.428;2022-09-21T04:21:21;17.00;99.90
20744;DHT22;56303;52.160;-0.428;2022-09-21T04:23:48;16.40;99.90
20744;DHT22;56303;52.160;-0.428;2022-09-21T04:26:27;16.60;99.90
20744;DHT22;56303;52.160;-0.428;2022-09-21T04:28:56;16.70;99.90
20744;DHT22;56303;52.160;-0.428;2022-09-21T04:31:24;16.70;99.90
20744;DHT22;56303;52.160;-0.428;2022-09-21T04:33:53;16.80;99.90
20744;DHT22;56303;52.160;-0.428;2022-09-21T04:36:21;16.70;99.90
20744;DHT22;56303;52.160;-0.428;2022-09-21T04:38:49;16.50;99.90
20744;DHT22;56303;52.160;-0.428;2022-09-21T04:41:16;16.50;99.90
20744;DHT22;56303;52.160;-0.428;2022-09-21T04:43:45;16.70;99.90
20744;DHT22;56303;52.160;-0.428;2022-09-21T04:46:14;16.80;99.90
20744;DHT22;56303;52.160;-0.428;2022-09-21T04:48:41;16.90;99.90
20744;DHT22;56303;52.160;-0.428;2022-09-21T04:51:09;17.00;99.90
20744;DHT22;56303;52.160;-0.428;2022-09-21T04:53:37;17.00;99.90
20744;DHT22;56303;52.160;-0.428;2022-09-21T04:56:06;16.80;99.90
20744;DHT22;56303;52.160;-0.428;2022-09-21T04:58:33;16.80;99.90
20744;DHT22;56303;52.160;-0.428;2022-09-21T05:01:00;16.80;99.90
20744;DHT22;56303;52.160;-0.428;2022-09-21T05:03:27;17.00;99.90
20744;DHT22;56303;52.160;-0.428;2022-09-21T05:05:56;16.80;99.90
20744;DHT22;56303;52.160;-0.428;2022-09-21T05:08:24;16.90;99.90
20744;DHT22;56303;52.160;-0.428;2022-09-21T05:11:13;17.10;99.90
20744;DHT22;56303;52.160;-0.428;2022-09-21T05:13:40;17.40;99.90
20744;DHT22;56303;52.160;-0.428;2022-09-21T05:16:08;17.40;99.90
20744;DHT22;56303;52.160;-0.428;2022-09-21T05:18:35;17.20;99.90
20744;DHT22;56303;52.160;-0.428;2022-09-21T05:21:03;17.10;99.90
20744;DHT22;56303;52.160;-0.428;2022-09-21T05:23:32;16.80;99.90
20744;DHT22;56303;52.160;-0.428;2022-09-21T05:25:59;16.80;99.90
20744;DHT22;56303;52.160;-0.428;2022-09-21T05:28:26;18.00;99.90
20744;DHT22;56303;52.160;-0.428;2022-09-21T05:30:57;17.10;99.90
20744;DHT22;56303;52.160;-0.428;2022-09-21T05:34:23;17.10;99.90
20744;DHT22;56303;52.160;-0.428;2022-09-21T05:39:41;16.70;99.90
20744;DHT22;56303;52.160;-0.428;2022-09-21T05:42:09;16.60;99.90
20744;DHT22;56303;52.160;-0.428;2022-09-21T05:44:36;16.60;99.90
20744;DHT22;56303;52.160;-0.428;2022-09-21T05:50:32;16.70;99.90
20744;DHT22;56303;52.160;-0.428;2022-09-21T05:55:58;16.40;99.90
20744;DHT22;56303;52.160;-0.428;2022-09-21T06:04:11;16.10;99.90
20744;DHT22;56303;52.160;-0.428;2022-09-21T06:06:38;16.00;99.90
20744;DHT22;56303;52.160;-0.428;2022-09-21T06:09:05;15.80;99.90
20744;DHT22;56303;52.160;-0.428;2022-09-21T06:11:32;15.70;99.90
20744;DHT22;56303;52.160;-0.428;2022-09-21T06:14:00;15.60;99.90
20744;DHT22;56303;52.160;-0.428;2022-09-21T06:16:39;15.70;99.90
20744;DHT22;56303;52.160;-0.428;2022-09-21T06:19:09;15.70;99.90
20744;DHT22;56303;52.160;-0.428;2022-09-21T06:21:36;15.80;99.90
20744;DHT22;56303;52.160;-0.428;2022-09-21T06:24:03;15.90;99.90
20744;DHT22;56303;52.160;-0.428;2022-09-21T06:26:30;15.80;99.90
20744;DHT22;56303;52.160;-0.428;2022-09-21T06:28:57;15.80;99.90
20744;DHT22;56303;52.160;-0.428;2022-09-21T06:31:26;15.90;99.90
20744;DHT22;56303;52.160;-0.428;2022-09-21T06:33:53;15.90;99.90
20744;DHT22;56303;52.160;-0.428;2022-09-21T06:36:19;15.90;99.90
20744;DHT22;56303;52.160;-0.428;2022-09-21T06:38:46;15.90;99.90
20744;DHT22;56303;52.160;-0.428;2022-09-21T06:41:13;15.70;99.90
20744;DHT22;56303;52.160;-0.428;2022-09-21T06:43:46;15.80;99.90
20744;DHT22;56303;52.160;-0.428;2022-09-21T06:46:13;15.90;99.90
20744;DHT22;56303;52.160;-0.428;2022-09-21T06:48:40;15.90;99.90
20744;DHT22;56303;52.160;-0.428;2022-09-21T06:51:08;16.10;99.90
20744;DHT22;56303;52.160;-0.428;2022-09-21T06:53:35;16.20;99.90
20744;DHT22;56303;52.160;-0.428;2022-09-21T06:56:12;16.30;99.90
20744;DHT22;56303;52.160;-0.428;2022-09-21T06:58:39;16.40;99.90
20744;DHT22;56303;52.160;-0.428;2022-09-21T07:01:11;16.50;99.90
20744;DHT22;56303;52.160;-0.428;2022-09-21T07:03:40;16.40;99.90
20744;DHT22;56303;52.160;-0.428;2022-09-21T07:06:08;16.40;99.90
20744;DHT22;56303;52.160;-0.428;2022-09-21T07:08:37;16.60;99.90
20744;DHT22;56303;52.160;-0.428;2022-09-21T07:11:25;18.10;99.90
20744;DHT22;56303;52.160;-0.428;2022-09-21T07:13:53;16.90;99.90
20744;DHT22;56303;52.160;-0.428;2022-09-21T07:16:20;17.20;99.90
20744;DHT22;56303;52.160;-0.428;2022-09-21T07:18:47;17.40;99.90
20744;DHT22;56303;52.160;-0.428;2022-09-21T07:21:14;17.40;99.90
20744;DHT22;56303;52.160;-0.428;2022-09-21T07:23:42;17.30;99.90
20744;DHT22;56303;52.160;-0.428;2022-09-21T07:26:11;17.30;99.90
20744;DHT22;56303;52.160;-0.428;2022-09-21T07:28:38;17.70;99.90
20744;DHT22;56303;52.160;-0.428;2022-09-21T07:31:11;17.60;99.90
20744;DHT22;56303;52.160;-0.428;2022-09-21T07:33:40;17.60;99.90
20744;DHT22;56303;52.160;-0.428;2022-09-21T07:36:07;17.50;99.90
20744;DHT22;56303;52.160;-0.428;2022-09-21T07:38:40;17.70;99.90
20744;DHT22;56303;52.160;-0.428;2022-09-21T07:41:12;17.90;99.90
20744;DHT22;56303;52.160;-0.428;2022-09-21T07:43:40;18.10;99.90
20744;DHT22;56303;52.160;-0.428;2022-09-21T07:46:10;18.10;99.90
20744;DHT22;56303;52.160;-0.428;2022-09-21T07:48:37;18.30;99.90
20744;DHT22;56303;52.160;-0.428;2022-09-21T07:51:07;18.40;99.90
20744;DHT22;56303;52.160;-0.428;2022-09-21T07:53:36;18.20;99.90
20744;DHT22;56303;52.160;-0.428;2022-09-21T07:56:08;18.20;99.90
20744;DHT22;56303;52.160;-0.428;2022-09-21T07:58:36;18.30;99.90
20744;DHT22;56303;52.160;-0.428;2022-09-21T08:01:22;18.30;99.90
20744;DHT22;56303;52.160;-0.428;2022-09-21T08:03:50;18.40;99.90
20744;DHT22;56303;52.160;-0.428;2022-09-21T08:06:17;18.40;99.90
20744;DHT22;56303;52.160;-0.428;2022-09-21T08:08:45;18.30;99.90
20744;DHT22;56303;52.160;-0.428;2022-09-21T08:11:14;18.10;99.90
20744;DHT22;56303;52.160;-0.428;2022-09-21T08:13:41;18.40;99.90
20744;DHT22;56303;52.160;-0.428;2022-09-21T08:16:08;18.40;99.90
20744;DHT22;56303;52.160;-0.428;2022-09-21T08:18:37;18.40;99.90
20744;DHT22;56303;52.160;-0.428;2022-09-21T08:21:06;18.40;99.90
20744;DHT22;56303;52.160;-0.428;2022-09-21T08:23:33;18.40;99.90
20744;DHT22;56303;52.160;-0.428;2022-09-21T08:26:03;18.60;99.90
20744;DHT22;56303;52.160;-0.428;2022-09-21T08:28:33;18.80;99.90
20744;DHT22;56303;52.160;-0.428;2022-09-21T08:31:03;19.00;99.90
20744;DHT22;56303;52.160;-0.428;2022-09-21T08:33:30;19.20;99.90
20744;DHT22;56303;52.160;-0.428;2022-09-21T08:35:59;19.30;99.90
20744;DHT22;56303;52.160;-0.428;2022-09-21T08:38:31;19.40;99.90
20744;DHT22;56303;52.160;-0.428;2022-09-21T08:41:00;19.40;99.90
20744;DHT22;56303;52.160;-0.428;2022-09-21T08:43:34;19.40;99.90
20744;DHT22;56303;52.160;-0.428;2022-09-21T08:46:09;19.50;99.90
20744;DHT22;56303;52.160;-0.428;2022-09-21T08:48:44;19.60;99.90
20744;DHT22;56303;52.160;-0.428;2022-09-21T08:51:20;19.60;99.90
20744;DHT22;56303;52.160;-0.428;2022-09-21T08:53:52;19.50;99.90
20744;DHT22;56303;52.160;-0.428;2022-09-21T08:56:21;19.60;99.90
20744;DHT22;56303;52.160;-0.428;2022-09-21T08:58:48;19.80;99.90
20744;DHT22;56303;52.160;-0.428;2022-09-21T09:06:44;20.10;99.90
20744;DHT22;56303;52.160;-0.428;2022-09-21T09:17:44;20.50;99.90
20744;DHT22;56303;52.160;-0.428;2022-09-21T09:20:33;20.50;99.90
20744;DHT22;56303;52.160;-0.428;2022-09-21T09:23:24;20.60;99.90
20744;DHT22;56303;52.160;-0.428;2022-09-21T09:25:57;20.70;99.90
20744;DHT22;56303;52.160;-0.428;2022-09-21T09:28:37;20.60;99.90
20744;DHT22;56303;52.160;-0.428;2022-09-21T09:31:33;20.70;99.90
20744;DHT22;56303;52.160;-0.428;2022-09-21T09:34:27;20.80;99.90
20744;DHT22;56303;52.160;-0.428;2022-09-21T09:37:14;20.90;99.90
20744;DHT22;56303;52.160;-0.428;2022-09-21T09:39:44;21.00;99.90
20744;DHT22;56303;52.160;-0.428;2022-09-21T09:48:01;21.10;99.90
20744;DHT22;56303;52.160;-0.428;2022-09-21T09:50:37;21.00;99.90
20744;DHT22;56303;52.160;-0.428;2022-09-21T09:53:18;21.00;99.90
20744;DHT22;56303;52.160;-0.428;2022-09-21T09:55:54;21.20;99.90
20744;DHT22;56303;52.160;-0.428;2022-09-21T10:00:56;21.40;99.90
20744;DHT22;56303;52.160;-0.428;2022-09-21T10:03:26;21.40;99.90
20744;DHT22;56303;52.160;-0.428;2022-09-21T10:05:54;21.60;99.90
20744;DHT22;56303;52.160;-0.428;2022-09-21T10:11:05;21.50;99.90
20744;DHT22;56303;52.160;-0.428;2022-09-21T10:13:32;20.60;99.90
20744;DHT22;56303;52.160;-0.428;2022-09-21T10:16:09;20.30;99.90
20744;DHT22;56303;52.160;-0.428;2022-09-21T10:21:40;20.70;99.90
20744;DHT22;56303;52.160;-0.428;2022-09-21T10:24:24;21.00;99.90
20744;DHT22;56303;52.160;-0.428;2022-09-21T10:27:15;21.30;99.90
20744;DHT22;56303;52.160;-0.428;2022-09-21T10:29:47;21.60;99.90
20744;DHT22;56303;52.160;-0.428;2022-09-21T10:37:46;21.90;99.90
20744;DHT22;56303;52.160;-0.428;2022-09-21T10:42:54;22.20;99.90
20744;DHT22;56303;52.160;-0.428;2022-09-21T10:45:30;22.20;99.90
20744;DHT22;56303;52.160;-0.428;2022-09-21T10:48:09;22.20;99.90
20744;DHT22;56303;52.160;-0.428;2022-09-21T10:50:41;21.90;99.90
20744;DHT22;56303;52.160;-0.428;2022-09-21T10:55:44;22.20;99.90
20744;DHT22;56303;52.160;-0.428;2022-09-21T10:58:33;22.50;99.90
20744;DHT22;56303;52.160;-0.428;2022-09-21T11:01:12;22.70;99.90
20744;DHT22;56303;52.160;-0.428;2022-09-21T11:04:59;22.30;99.90
20744;DHT22;56303;52.160;-0.428;2022-09-21T11:18:57;22.70;99.90
20744;DHT22;56303;52.160;-0.428;2022-09-21T11:24:28;23.20;99.90
20744;DHT22;56303;52.160;-0.428;2022-09-21T11:32:56;22.80;99.90
20744;DHT22;56303;52.160;-0.428;2022-09-21T11:44:28;22.30;99.90
20744;DHT22;56303;52.160;-0.428;2022-09-21T11:56:47;23.70;99.90
20744;DHT22;56303;52.160;-0.428;2022-09-21T11:58:53;23.90;99.70
20744;DHT22;56303;52.160;-0.428;2022-09-21T12:02:16;24.00;99.90
20744;DHT22;56303;52.160;-0.428;2022-09-21T12:04:59;24.00;99.90
20744;DHT22;56303;52.160;-0.428;2022-09-21T12:15:58;24.00;98.90
20744;DHT22;56303;52.160;-0.428;2022-09-21T12:18:37;24.10;98.10
20744;DHT22;56303;52.160;-0.428;2022-09-21T12:21:27;23.70;98.20
20744;DHT22;56303;52.160;-0.428;2022-09-21T12:23:56;23.50;97.80
20744;DHT22;56303;52.160;-0.428;2022-09-21T12:26:36;23.20;97.10
20744;DHT22;56303;52.160;-0.428;2022-09-21T12:29:18;23.10;97.40
20744;DHT22;56303;52.160;-0.428;2022-09-21T12:32:00;22.90;98.30
20744;DHT22;56303;52.160;-0.428;2022-09-21T12:38:07;22.50;98.10
20744;DHT22;56303;52.160;-0.428;2022-09-21T12:40:42;22.30;98.60
20744;DHT22;56303;52.160;-0.428;2022-09-21T12:43:27;22.00;98.60
20744;DHT22;56303;52.160;-0.428;2022-09-21T12:48:46;22.30;98.50
20744;DHT22;56303;52.160;-0.428;2022-09-21T12:53:48;22.40;98.60
20744;DHT22;56303;52.160;-0.428;2022-09-21T13:02:19;22.40;98.80
20744;DHT22;56303;52.160;-0.428;2022-09-21T13:05:06;22.70;98.70
20744;DHT22;56303;52.160;-0.428;2022-09-21T13:10:54;23.00;98.50
20744;DHT22;56303;52.160;-0.428;2022-09-21T13:13:39;23.40;98.10
20744;DHT22;56303;52.160;-0.428;2022-09-21T13:16:39;23.60;98.30
20744;DHT22;56303;52.160;-0.428;2022-09-21T13:21:39;23.60;97.00
20744;DHT22;56303;52.160;-0.428;2022-09-21T13:24:24;23.80;97.10
20744;DHT22;56303;52.160;-0.428;2022-09-21T13:26:57;24.00;96.80
20744;DHT22;56303;52.160;-0.428;2022-09-21T13:29:29;24.20;97.20
20744;DHT22;56303;52.160;-0.428;2022-09-21T13:37:19;25.10;95.10
20744;DHT22;56303;52.160;-0.428;2022-09-21T13:47:41;25.10;94.70
20744;DHT22;56303;52.160;-0.428;2022-09-21T13:50:28;25.30;94.50
20744;DHT22;56303;52.160;-0.428;2022-09-21T13:53:00;24.50;95.40
20744;DHT22;56303;52.160;-0.428;2022-09-21T13:55:48;24.30;95.60
20744;DHT22;56303;52.160;-0.428;2022-09-21T13:58:34;24.60;94.40
20744;DHT22;56303;52.160;-0.428;2022-09-21T14:07:12;26.00;91.50
20744;DHT22;56303;52.160;-0.428;2022-09-21T14:09:55;25.30;91.80
20744;DHT22;56303;52.160;-0.428;2022-09-21T14:12:24;25.40;92.70
20744;DHT22;56303;52.160;-0.428;2022-09-21T14:17:44;24.60;92.50
20744;DHT22;56303;52.160;-0.428;2022-09-21T14:26:00;23.90;93.70
20744;DHT22;56303;52.160;-0.428;2022-09-21T14:28:36;24.30;93.30
20744;DHT22;56303;52.160;-0.428;2022-09-21T14:31:18;24.90;92.50
20744;DHT22;56303;52.160;-0.428;2022-09-21T14:33:51;25.80;93.10
20744;DHT22;56303;52.160;-0.428;2022-09-21T14:36:27;26.50;91.30
20744;DHT22;56303;52.160;-0.428;2022-09-21T14:39:02;26.20;91.10
20744;DHT22;56303;52.160;-0.428;2022-09-21T14:41:39;25.50;91.70
20744;DHT22;56303;52.160;-0.428;2022-09-21T14:44:16;25.90;91.50
20744;DHT22;56303;52.160;-0.428;2022-09-21T14:49:31;25.10;92.30
20744;DHT22;56303;52.160;-0.428;2022-09-21T14:54:45;24.20;93.60
20744;DHT22;56303;52.160;-0.428;2022-09-21T15:05:41;24.30;93.60
20744;DHT22;56303;52.160;-0.428;2022-09-21T15:08:23;24.10;94.40
20744;DHT22;56303;52.160;-0.428;2022-09-21T15:11:42;23.70;94.30
20744;DHT22;56303;52.160;-0.428;2022-09-21T15:14:25;23.90;94.30
20744;DHT22;56303;52.160;-0.428;2022-09-21T15:16:53;24.00;94.40
20744;DHT22;56303;52.160;-0.428;2022-09-21T15:19:25;23.90;94.10
20744;DHT22;56303;52.160;-0.428;2022-09-21T15:22:15;23.60;94.30
20744;DHT22;56303;52.160;-0.428;2022-09-21T15:24:57;23.70;94.30
20744;DHT22;56303;52.160;-0.428;2022-09-21T15:27:30;23.30;94.60
20744;DHT22;56303;52.160;-0.428;2022-09-21T15:30:02;23.30;94.90
20744;DHT22;56303;52.160;-0.428;2022-09-21T15:32:40;23.10;95.10
20744;DHT22;56303;52.160;-0.428;2022-09-21T15:35:20;23.00;95.70
20744;DHT22;56303;52.160;-0.428;2022-09-21T15:37:49;23.00;95.90
20744;DHT22;56303;52.160;-0.428;2022-09-21T15:40:23;23.00;95.80
20744;DHT22;56303;52.160;-0.428;2022-09-21T15:45:29;22.60;96.30
20744;DHT22;56303;52.160;-0.428;2022-09-21T15:47:59;22.80;96.40
20744;DHT22;56303;52.160;-0.428;2022-09-21T15:50:28;22.60;96.40
20744;DHT22;56303;52.160;-0.428;2022-09-21T15:53:01;22.50;96.40
20744;DHT22;56303;52.160;-0.428;2022-09-21T15:55:31;22.10;96.70
20744;DHT22;56303;52.160;-0.428;2022-09-21T15:57:59;21.90;96.90
20744;DHT22;56303;52.160;-0.428;2022-09-21T16:00:32;22.10;97.40
20744;DHT22;56303;52.160;-0.428;2022-09-21T16:03:04;22.20;96.70
20744;DHT22;56303;52.160;-0.428;2022-09-21T16:05:46;23.70;96.90
20744;DHT22;56303;52.160;-0.428;2022-09-21T16:14:17;22.60;96.90
20744;DHT22;56303;52.160;-0.428;2022-09-21T16:22:36;22.30;98.20
20744;DHT22;56303;52.160;-0.428;2022-09-21T16:25:29;22.20;98.20
20744;DHT22;56303;52.160;-0.428;2022-09-21T16:28:03;22.40;98.10
20744;DHT22;56303;52.160;-0.428;2022-09-21T16:30:44;22.40;98.20
20744;DHT22;56303;52.160;-0.428;2022-09-21T16:39:00;21.90;98.90
20744;DHT22;56303;52.160;-0.428;2022-09-21T16:41:55;21.80;98.70
20744;DHT22;56303;52.160;-0.428;2022-09-21T16:44:26;21.90;98.80
20744;DHT22;56303;52.160;-0.428;2022-09-21T16:46:58;21.90;98.90
20744;DHT22;56303;52.160;-0.428;2022-09-21T16:49:30;21.90;99.00
20744;DHT22;56303;52.160;-0.428;2022-09-21T16:51:58;21.90;99.00
20744;DHT22;56303;52.160;-0.428;2022-09-21T16:54:25;22.00;99.00
20744;DHT22;56303;52.160;-0.428;2022-09-21T16:56:55;22.10;99.00
20744;DHT22;56303;52.160;-0.428;2022-09-21T16:59:23;21.90;98.90
20744;DHT22;56303;52.160;-0.428;2022-09-21T17:01:55;21.70;99.40
20744;DHT22;56303;52.160;-0.428;2022-09-21T17:04:28;21.70;99.60
20744;DHT22;56303;52.160;-0.428;2022-09-21T17:06:55;21.70;99.40
20744;DHT22;56303;52.160;-0.428;2022-09-21T17:09:36;21.80;99.40
20744;DHT22;56303;52.160;-0.428;2022-09-21T17:12:07;21.70;99.40
20744;DHT22;56303;52.160;-0.428;2022-09-21T17:14:36;21.60;99.50
20744;DHT22;56303;52.160;-0.428;2022-09-21T17:17:17;21.60;99.60
20744;DHT22;56303;52.160;-0.428;2022-09-21T17:19:45;21.70;99.80
20744;DHT22;56303;52.160;-0.428;2022-09-21T17:22:14;21.80;99.70
20744;DHT22;56303;52.160;-0.428;2022-09-21T17:24:48;21.60;99.40
20744;DHT22;56303;52.160;-0.428;2022-09-21T17:27:22;21.40;99.80
20744;DHT22;56303;52.160;-0.428;2022-09-21T17:29:51;21.30;99.80
20744;DHT22;56303;52.160;-0.428;2022-09-21T17:32:22;21.30;99.90
20744;DHT22;56303;52.160;-0.428;2022-09-21T17:35:25;21.30;99.90
20744;DHT22;56303;52.160;-0.428;2022-09-21T17:37:56;21.30;99.90
20744;DHT22;56303;52.160;-0.428;2022-09-21T17:40:24;21.30;99.90
20744;DHT22;56303;52.160;-0.428;2022-09-21T17:42:55;21.30;99.90
20744;DHT22;56303;52.160;-0.428;2022-09-21T17:45:38;21.30;99.90
20744;DHT22;56303;52.160;-0.428;2022-09-21T17:48:16;21.40;99.90
20744;DHT22;56303;52.160;-0.428;2022-09-21T17:50:43;21.50;99.90
20744;DHT22;56303;52.160;-0.428;2022-09-21T17:53:11;21.50;99.90
20744;DHT22;56303;52.160;-0.428;2022-09-21T17:56:02;21.50;99.90
20744;DHT22;56303;52.160;-0.428;2022-09-21T17:58:46;21.50;99.90
20744;DHT22;56303;52.160;-0.428;2022-09-21T18:03:58;21.30;99.90
20744;DHT22;56303;52.160;-0.428;2022-09-21T18:06:25;21.10;99.90
20744;DHT22;56303;52.160;-0.428;2022-09-21T18:08:52;21.00;99.90
20744;DHT22;56303;52.160;-0.428;2022-09-21T18:11:42;21.10;99.90
20744;DHT22;56303;52.160;-0.428;2022-09-21T18:14:33;21.00;99.90
20744;DHT22;56303;52.160;-0.428;2022-09-21T18:20:05;20.70;99.90
20744;DHT22;56303;52.160;-0.428;2022-09-21T18:22:57;20.70;99.90
20744;DHT22;56303;52.160;-0.428;2022-09-21T18:25:37;21.50;99.90
20744;DHT22;56303;52.160;-0.428;2022-09-21T18:45:26;20.50;99.90
20744;DHT22;56303;52.160;-0.428;2022-09-21T18:55:38;20.60;99.90
20744;DHT22;56303;52.160;-0.428;2022-09-21T18:58:13;20.30;99.90
20744;DHT22;56303;52.160;-0.428;2022-09-21T19:00:42;20.00;99.90
20744;DHT22;56303;52.160;-0.428;2022-09-21T19:03:13;19.90;99.90
20744;DHT22;56303;52.160;-0.428;2022-09-21T19:11:28;20.00;99.90
20744;DHT22;56303;52.160;-0.428;2022-09-21T19:14:19;20.10;99.90
20744;DHT22;56303;52.160;-0.428;2022-09-21T19:25:31;19.90;99.90
20744;DHT22;56303;52.160;-0.428;2022-09-21T19:30:58;20.10;99.90
20744;DHT22;56303;52.160;-0.428;2022-09-21T19:33:30;20.10;99.90
20744;DHT22;56303;52.160;-0.428;2022-09-21T19:36:16;20.00;99.90
20744;DHT22;56303;52.160;-0.428;2022-09-21T19:38:43;20.00;99.90
20744;DHT22;56303;52.160;-0.428;2022-09-21T19:49:53;19.70;99.90
20744;DHT22;56303;52.160;-0.428;2022-09-21T19:52:31;19.60;99.90
20744;DHT22;56303;52.160;-0.428;2022-09-21T19:55:00;19.50;99.90
20744;DHT22;56303;52.160;-0.428;2022-09-21T19:57:46;19.60;99.90
20744;DHT22;56303;52.160;-0.428;2022-09-21T20:00:32;19.50;99.90
20744;DHT22;56303;52.160;-0.428;2022-09-21T20:03:13;19.40;99.90
20744;DHT22;56303;52.160;-0.428;2022-09-21T20:11:04;19.40;99.90
20744;DHT22;56303;52.160;-0.428;2022-09-21T20:16:35;19.40;99.90
20744;DHT22;56303;52.160;-0.428;2022-09-21T20:21:41;19.30;99.90
20744;DHT22;56303;52.160;-0.428;2022-09-21T20:24:20;19.20;99.90
20744;DHT22;56303;52.160;-0.428;2022-09-21T20:26:50;19.20;99.90
20744;DHT22;56303;52.160;-0.428;2022-09-21T20:29:18;19.10;99.90
20744;DHT22;56303;52.160;-0.428;2022-09-21T20:31:47;18.90;99.90
20744;DHT22;56303;52.160;-0.428;2022-09-21T20:34:14;18.90;99.90
20744;DHT22;56303;52.160;-0.428;2022-09-21T20:36:41;18.70;99.90
20744;DHT22;56303;52.160;-0.428;2022-09-21T20:39:08;18.70;99.90
20744;DHT22;56303;52.160;-0.428;2022-09-21T20:41:35;18.70;99.90
20744;DHT22;56303;52.160;-0.428;2022-09-21T20:44:03;18.60;99.90
20744;DHT22;56303;52.160;-0.428;2022-09-21T20:46:31;18.60;99.90
20744;DHT22;56303;52.160;-0.428;2022-09-21T20:48:57;18.70;99.90
20744;DHT22;56303;52.160;-0.428;2022-09-21T20:51:31;18.70;99.90
20744;DHT22;56303;52.160;-0.428;2022-09-21T20:54:02;18.50;99.90
20744;DHT22;56303;52.160;-0.428;2022-09-21T20:56:30;18.80;99.90